createdAt,value
2022-10-17T00:00:37.160Z,99551.8
2022-10-17T00:01:37.042Z,99547.27
2022-10-17T00:02:37.048Z,99554.36
2022-10-17T00:03:37.963Z,99560.72
2022-10-17T00:04:37.018Z,99558.99
2022-10-17T00:05:44.467Z,99557.52
2022-10-17T00:06:41.147Z,99563.23
2022-10-17T00:07:41.138Z,99557.36
2022-10-17T00:08:41.920Z,99556.12
2022-10-17T00:09:43.747Z,99561
2022-10-17T00:10:41.942Z,99563.41
2022-10-17T00:11:41.173Z,99560.74
2022-10-17T00:12:41.252Z,99559.14
2022-10-17T00:13:41.245Z,99565.59
2022-10-17T00:14:41.302Z,99558.02
2022-10-17T00:15:43.905Z,99564.59
2022-10-17T00:16:41.500Z,99566.3
2022-10-17T00:17:41.195Z,99566.62
2022-10-17T00:18:41.489Z,99561.34
2022-10-17T00:19:41.471Z,99557.54
2022-10-17T00:20:41.262Z,99562.2
2022-10-17T00:21:41.514Z,99571.64
2022-10-17T00:22:41.569Z,99568.82
2022-10-17T00:23:41.374Z,99564.31
2022-10-17T00:24:41.399Z,99568.75
2022-10-17T00:25:41.325Z,99572.71
2022-10-17T00:26:41.397Z,99574.24
2022-10-17T00:27:46.446Z,99577.03
2022-10-17T00:28:45.605Z,99579.59
2022-10-17T00:29:43.108Z,99575.3
2022-10-17T00:30:43.131Z,99576.78
2022-10-17T00:31:43.176Z,99576.72
2022-10-17T00:32:43.169Z,99573.97
2022-10-17T00:33:43.393Z,99577.16
2022-10-17T00:34:43.245Z,99575.64
2022-10-17T00:35:43.230Z,99578.74
2022-10-17T00:36:43.212Z,99573.2
2022-10-17T00:37:43.216Z,99576.09
2022-10-17T00:38:44.448Z,99574.27
2022-10-17T00:39:43.282Z,99568.67
2022-10-17T00:40:43.280Z,99566.98
2022-10-17T00:41:43.258Z,99568.23
2022-10-17T00:42:43.509Z,99573.06
2022-10-17T00:43:54.719Z,99566.3
2022-10-17T00:44:55.064Z,99563.91
2022-10-17T00:45:46.716Z,99559.16
2022-10-17T00:46:46.750Z,99563.17
2022-10-17T00:47:50.174Z,99570.14
2022-10-17T00:48:48.105Z,99566.53
2022-10-17T00:49:47.462Z,99564.2
2022-10-17T00:50:49.152Z,99566.19
2022-10-17T00:51:50.507Z,99569.84
2022-10-17T00:52:48.719Z,99562.41
2022-10-17T00:53:47.541Z,99569.39
2022-10-17T00:54:53.470Z,99567.18
2022-10-17T00:55:52.689Z,99569.5
2022-10-17T00:56:51.066Z,99567.8
2022-10-17T00:57:50.598Z,99565
2022-10-17T00:58:50.296Z,99560.25
2022-10-17T00:59:54.932Z,99568.89
2022-10-17T01:00:51.617Z,99565.14
2022-10-17T01:01:56.537Z,99566.74
2022-10-17T01:02:53.191Z,99562.11
2022-10-17T01:03:53.177Z,99566.72
2022-10-17T01:04:53.893Z,99572.07
2022-10-17T01:05:53.216Z,99577.02
2022-10-17T01:06:53.268Z,99568.36
2022-10-17T01:07:53.774Z,99570.05
2022-10-17T01:08:53.293Z,99568.72
2022-10-17T01:09:53.258Z,99567.98
2022-10-17T01:11:03.054Z,99573.26
2022-10-17T01:22:23.080Z,99556.05
2022-10-17T01:31:47.278Z,99565.59
2022-10-17T01:32:49.559Z,99566.34
2022-10-17T01:40:10.129Z,99575.71
2022-10-17T01:41:14.231Z,99574.88
2022-10-17T01:42:13.706Z,99578.11
2022-10-17T01:43:18.158Z,99575.86
2022-10-17T01:46:22.758Z,99587.31
2022-10-17T01:47:21.406Z,99581.29
2022-10-17T01:48:23.807Z,99580.05
2022-10-17T01:49:24.575Z,99583.39
2022-10-17T01:50:25.007Z,99581.37
2022-10-17T01:51:26.355Z,99574.36
2022-10-17T01:52:33.538Z,99570.76
2022-10-17T01:53:31.327Z,99570.22
2022-10-17T01:54:32.199Z,99554.06
2022-10-17T01:55:32.710Z,99557.11
2022-10-17T01:56:31.425Z,99555.05
2022-10-17T01:57:31.935Z,99551.25
2022-10-17T01:58:31.239Z,99553.45
2022-10-17T01:59:33.991Z,99557.83
2022-10-17T02:00:31.671Z,99561.12
2022-10-17T02:01:31.101Z,99555.39
2022-10-17T02:02:31.016Z,99553.83
2022-10-17T02:03:31.244Z,99559.97
2022-10-17T02:04:30.762Z,99558.8
2022-10-17T02:05:32.351Z,99556.5
2022-10-17T02:06:34.063Z,99554.06
2022-10-17T02:07:30.926Z,99547.3
2022-10-17T02:09:32.881Z,99542.34
2022-10-17T02:11:36.142Z,99540.43
2022-10-17T02:21:01.866Z,99558.83
2022-10-17T02:23:11.114Z,99557.35
2022-10-17T02:24:12.349Z,99562.87
2022-10-17T02:25:14.514Z,99565.41
2022-10-17T02:26:10.608Z,99567.11
2022-10-17T02:29:19.142Z,99573.55
2022-10-17T02:31:23.997Z,99583
2022-10-17T02:34:29.620Z,99586.64
2022-10-17T02:35:29.374Z,99590.52
2022-10-17T02:36:30.455Z,99590.96
2022-10-17T02:37:28.741Z,99590.91
2022-10-17T02:38:28.809Z,99590.2
2022-10-17T02:39:28.309Z,99590.09
2022-10-17T02:40:29.299Z,99590.94
2022-10-17T02:41:26.872Z,99589.31
2022-10-17T02:42:28.366Z,99593.38
2022-10-17T02:43:28.025Z,99589.76
2022-10-17T02:44:28.044Z,99588.12
2022-10-17T02:45:27.818Z,99592.16
2022-10-17T02:46:27.885Z,99583.3
2022-10-17T02:47:35.672Z,99586.91
2022-10-17T02:48:35.451Z,99582.43
2022-10-17T02:49:36.100Z,99584.45
2022-10-17T02:54:47.751Z,99586.23
2022-10-17T02:55:48.120Z,99587.38
2022-10-17T02:56:50.562Z,99585
2022-10-17T02:57:54.374Z,99586.29
2022-10-17T02:58:54.441Z,99595.44
2022-10-17T02:59:50.887Z,99589.73
2022-10-17T03:00:51.423Z,99593.5
2022-10-17T03:01:50.677Z,99596.36
2022-10-17T03:02:51.363Z,99592.89
2022-10-17T03:03:50.929Z,99593.72
2022-10-17T03:04:50.897Z,99597.42
2022-10-17T03:05:50.719Z,99592.78
2022-10-17T03:06:50.744Z,99589.58
2022-10-17T03:07:51.220Z,99597.12
2022-10-17T03:08:50.725Z,99597.04
2022-10-17T03:09:50.797Z,99600.23
2022-10-17T03:10:51.153Z,99598.58
2022-10-17T03:11:50.811Z,99600.02
2022-10-17T03:12:50.809Z,99603.98
2022-10-17T03:13:50.847Z,99611.29
2022-10-17T03:14:50.802Z,99609.88
2022-10-17T03:15:50.830Z,99612.3
2022-10-17T03:16:51.146Z,99615.55
2022-10-17T03:17:50.894Z,99616.59
2022-10-17T03:18:50.909Z,99615.2
2022-10-17T03:19:50.960Z,99612.25
2022-10-17T03:20:50.908Z,99619.93
2022-10-17T03:21:50.946Z,99623.81
2022-10-17T03:22:50.971Z,99626.2
2022-10-17T03:23:50.932Z,99619.18
2022-10-17T03:24:50.964Z,99616.27
2022-10-17T03:25:50.983Z,99613.8
2022-10-17T03:26:50.980Z,99603.64
2022-10-17T03:27:51.038Z,99620.16
2022-10-17T03:28:53.688Z,99617.34
2022-10-17T03:29:51.291Z,99624.51
2022-10-17T03:30:51.053Z,99618.92
2022-10-17T03:31:51.066Z,99628.7
2022-10-17T03:32:51.091Z,99622.94
2022-10-17T03:33:51.112Z,99647.3
2022-10-17T03:34:51.113Z,99642.17
2022-10-17T03:35:51.117Z,99646.34
2022-10-17T03:36:51.163Z,99646.3
2022-10-17T03:37:51.165Z,99647.53
2022-10-17T03:38:54.506Z,99655.95
2022-10-17T03:39:51.187Z,99647.14
2022-10-17T03:40:56.948Z,99648.78
2022-10-17T03:41:53.165Z,99639
2022-10-17T03:42:53.381Z,99641.31
2022-10-17T03:43:53.683Z,99647.05
2022-10-17T03:44:53.168Z,99637.73
2022-10-17T03:45:53.190Z,99631.17
2022-10-17T03:46:53.225Z,99649.55
2022-10-17T03:47:53.346Z,99637.71
2022-10-17T03:48:53.483Z,99652.42
2022-10-17T03:49:53.247Z,99648.55
2022-10-17T03:50:57.970Z,99653.11
2022-10-17T03:51:54.149Z,99652.8
2022-10-17T03:52:54.242Z,99655.5
2022-10-17T03:53:54.196Z,99652.98
2022-10-17T03:54:54.205Z,99644.67
2022-10-17T03:55:54.251Z,99640.84
2022-10-17T03:56:54.536Z,99628.92
2022-10-17T03:57:54.256Z,99641.84
2022-10-17T03:58:54.746Z,99638.77
2022-10-17T03:59:54.262Z,99644.48
2022-10-17T04:00:54.334Z,99634.61
2022-10-17T04:01:54.272Z,99639.56
2022-10-17T04:02:54.327Z,99654.4
2022-10-17T04:03:55.569Z,99647.44
2022-10-17T04:04:54.338Z,99645.44
2022-10-17T04:05:54.351Z,99647.77
2022-10-17T04:06:54.369Z,99647.39
2022-10-17T04:07:54.405Z,99655.12
2022-10-17T04:08:54.423Z,99644.48
2022-10-17T04:09:54.459Z,99650.8
2022-10-17T04:10:58.301Z,99654.89
2022-10-17T04:11:54.495Z,99642.72
2022-10-17T04:12:54.506Z,99656.13
2022-10-17T04:13:55.472Z,99653.74
2022-10-17T04:14:54.574Z,99650.64
2022-10-17T04:15:58.083Z,99656.14
2022-10-17T04:16:54.615Z,99647.41
2022-10-17T04:17:54.684Z,99653.92
2022-10-17T04:18:56.136Z,99642.73
2022-10-17T04:19:54.682Z,99645.59
2022-10-17T04:20:54.677Z,99639.38
2022-10-17T04:21:54.654Z,99630.9
2022-10-17T04:22:54.652Z,99637.7
2022-10-17T04:23:55.392Z,99643.05
2022-10-17T04:24:54.723Z,99633.63
2022-10-17T04:25:58.126Z,99643.25
2022-10-17T04:26:54.725Z,99630.43
2022-10-17T04:27:54.731Z,99631.8
2022-10-17T04:28:54.756Z,99630.23
2022-10-17T04:29:54.790Z,99628.31
2022-10-17T04:30:58.947Z,99627.86
2022-10-17T04:31:55.176Z,99634.2
2022-10-17T04:32:55.182Z,99627.44
2022-10-17T04:33:55.232Z,99625.21
2022-10-17T04:34:55.203Z,99637.17
2022-10-17T04:36:01.998Z,99642.98
2022-10-17T04:36:58.176Z,99637.11
2022-10-17T04:37:58.408Z,99638.56
2022-10-17T04:39:00.131Z,99650.64
2022-10-17T04:39:58.270Z,99640.64
2022-10-17T04:40:58.669Z,99637.27
2022-10-17T04:41:58.493Z,99640.96
2022-10-17T04:42:58.301Z,99644.36
2022-10-17T04:43:58.779Z,99647.09
2022-10-17T04:44:58.340Z,99644.09
2022-10-17T04:45:59.021Z,99641.98
2022-10-17T04:46:59.901Z,99635.95
2022-10-17T04:47:58.352Z,99634.69
2022-10-17T04:48:58.408Z,99630.17
2022-10-17T04:49:58.424Z,99638
2022-10-17T04:51:02.966Z,99641.69
2022-10-17T04:51:59.172Z,99648.5
2022-10-17T04:52:59.415Z,99646.61
2022-10-17T04:53:59.196Z,99653.09
2022-10-17T04:54:59.204Z,99648.58
2022-10-17T04:55:59.273Z,99652.69
2022-10-17T04:56:59.270Z,99650.85
2022-10-17T04:57:59.251Z,99650.92
2022-10-17T04:58:59.284Z,99649.25
2022-10-17T04:59:59.335Z,99643.01
2022-10-17T05:00:59.376Z,99651.41
2022-10-17T05:01:59.338Z,99643.98
2022-10-17T05:02:59.381Z,99651.51
2022-10-17T05:03:59.354Z,99656.63
2022-10-17T05:04:59.376Z,99651.81
2022-10-17T05:06:02.741Z,99650.77
2022-10-17T05:06:59.452Z,99655.44
2022-10-17T05:07:59.445Z,99654.03
2022-10-17T05:08:59.438Z,99657.8
2022-10-17T05:09:59.460Z,99658.12
2022-10-17T05:11:59.538Z,99658.98
2022-10-17T05:12:59.524Z,99656.95
2022-10-17T05:14:00.996Z,99660.04
2022-10-17T05:14:59.564Z,99658.3
2022-10-17T05:16:02.318Z,99658.11
2022-10-17T05:16:59.642Z,99668.57
2022-10-17T05:17:59.591Z,99664.76
2022-10-17T05:18:59.594Z,99663.22
2022-10-17T05:19:59.635Z,99663.08
2022-10-17T05:20:59.622Z,99655.23
2022-10-17T05:21:59.723Z,99658.01
2022-10-17T05:23:00.326Z,99653.48
2022-10-17T05:23:59.810Z,99650.59
2022-10-17T05:24:59.732Z,99655.05
2022-10-17T05:25:59.768Z,99668.68
2022-10-17T05:26:59.837Z,99670.6
2022-10-17T05:27:59.745Z,99669.5
2022-10-17T05:29:00.455Z,99668.12
2022-10-17T05:29:59.761Z,99671.47
2022-10-17T05:31:05.818Z,99691.91
2022-10-17T05:33:02.486Z,99697.34
2022-10-17T05:34:02.968Z,99702.75
2022-10-17T05:35:02.109Z,99704.1
2022-10-17T05:36:02.094Z,99702.21
2022-10-17T05:37:02.116Z,99704.7
2022-10-17T05:38:02.101Z,99715.34
2022-10-17T05:39:02.120Z,99709.92
2022-10-17T05:40:02.501Z,99714.28
2022-10-17T05:41:03.794Z,99710.25
2022-10-17T05:42:02.192Z,99706.41
2022-10-17T05:43:02.228Z,99710.22
2022-10-17T05:44:04.754Z,99703.28
2022-10-17T05:45:02.272Z,99704
2022-10-17T05:46:03.475Z,99700.01
2022-10-17T05:47:02.236Z,99707.62
2022-10-17T05:48:02.509Z,99698.84
2022-10-17T05:49:03.592Z,99695.84
2022-10-17T05:50:04.604Z,99705.93
2022-10-17T05:51:05.963Z,99714.37
2022-10-17T05:52:04.643Z,99711.75
2022-10-17T05:53:04.360Z,99710.16
2022-10-17T05:54:06.944Z,99722.58
2022-10-17T05:55:05.086Z,99713.62
2022-10-17T05:56:05.802Z,99727.05
2022-10-17T05:57:04.405Z,99732.64
2022-10-17T05:58:04.263Z,99725.91
2022-10-17T05:59:04.669Z,99748.11
2022-10-17T06:00:05.008Z,99750.2
2022-10-17T06:01:07.123Z,99733.66
2022-10-17T06:02:05.891Z,99745.28
2022-10-17T06:03:05.736Z,99740.15
2022-10-17T06:04:05.761Z,99753.54
2022-10-17T06:05:06.043Z,99753.36
2022-10-17T06:06:06.936Z,99742.89
2022-10-17T06:07:05.761Z,99745.16
2022-10-17T06:08:06.097Z,99745.47
2022-10-17T06:09:06.260Z,99745.02
2022-10-17T06:10:06.065Z,99751.7
2022-10-17T06:11:09.250Z,99758.45
2022-10-17T06:12:07.437Z,99751.27
2022-10-17T06:13:06.907Z,99760.51
2022-10-17T06:14:06.850Z,99766.64
2022-10-17T06:15:07.364Z,99766.94
2022-10-17T06:16:07.118Z,99770.97
2022-10-17T06:17:09.945Z,99776.55
2022-10-17T06:18:08.723Z,99777.32
2022-10-17T06:19:08.537Z,99774.72
2022-10-17T06:20:09.013Z,99773.66
2022-10-17T06:21:09.753Z,99772.91
2022-10-17T06:22:08.569Z,99781.81
2022-10-17T06:23:08.573Z,99784.83
2022-10-17T06:24:08.592Z,99778.7
2022-10-17T06:25:09.180Z,99775.69
2022-10-17T06:26:08.880Z,99791.82
2022-10-17T06:27:11.768Z,99794.67
2022-10-17T06:28:08.875Z,99797.97
2022-10-17T06:29:09.166Z,99804.58
2022-10-17T06:30:09.278Z,99808.66
2022-10-17T06:31:09.902Z,99807.66
2022-10-17T06:32:11.257Z,99809.06
2022-10-17T06:33:10.669Z,99816.91
2022-10-17T06:34:10.717Z,99813.8
2022-10-17T06:35:10.658Z,99810.52
2022-10-17T06:36:12.373Z,99814.88
2022-10-17T06:37:10.714Z,99819.34
2022-10-17T06:38:10.762Z,99820.77
2022-10-17T06:39:10.913Z,99792.55
2022-10-17T06:40:11.334Z,99814.84
2022-10-17T06:41:12.656Z,99800.45
2022-10-17T06:42:10.779Z,99815.31
2022-10-17T06:43:10.779Z,99822.45
2022-10-17T06:44:11.636Z,99814.55
2022-10-17T06:45:11.077Z,99832.6
2022-10-17T06:46:10.853Z,99824.25
2022-10-17T06:47:10.835Z,99818.84
2022-10-17T06:48:10.889Z,99828.42
2022-10-17T06:49:11.118Z,99830.44
2022-10-17T06:50:11.006Z,99827.38
2022-10-17T06:51:11.220Z,99827.96
2022-10-17T06:52:10.918Z,99824.02
2022-10-17T06:53:10.954Z,99831.2
2022-10-17T06:54:10.983Z,99829.91
2022-10-17T06:55:11.036Z,99826.59
2022-10-17T06:56:11.014Z,99828.8
2022-10-17T06:57:11.087Z,99835.36
2022-10-17T06:58:11.235Z,99816.22
2022-10-17T06:59:11.442Z,99844.61
2022-10-17T07:00:11.808Z,99837.22
2022-10-17T07:01:12.436Z,99831.27
2022-10-17T07:02:11.545Z,99837.23
2022-10-17T07:03:11.153Z,99845.08
2022-10-17T07:04:11.442Z,99838.31
2022-10-17T07:05:11.647Z,99849.66
2022-10-17T07:06:12.739Z,99837.55
2022-10-17T07:07:11.274Z,99837.17
2022-10-17T07:08:11.933Z,99824.33
2022-10-17T07:09:11.280Z,99853.37
2022-10-17T07:10:12.017Z,99853.67
2022-10-17T07:11:12.614Z,99861.64
2022-10-17T07:12:11.374Z,99859.49
2022-10-17T07:13:11.514Z,99862.06
2022-10-17T07:14:11.620Z,99866.18
2022-10-17T07:15:11.571Z,99854.03
2022-10-17T07:16:11.393Z,99863.55
2022-10-17T07:17:11.593Z,99864.22
2022-10-17T07:18:11.427Z,99860.25
2022-10-17T07:19:11.398Z,99866.55
2022-10-17T07:20:11.673Z,99866.78
2022-10-17T07:21:12.002Z,99867.66
2022-10-17T07:22:11.922Z,99869.82
2022-10-17T07:23:11.491Z,99871.33
2022-10-17T07:24:11.481Z,99879.77
2022-10-17T07:25:11.703Z,99872.94
2022-10-17T07:26:13.128Z,99877.42
2022-10-17T07:27:12.349Z,99860.7
2022-10-17T07:28:11.532Z,99867.93
2022-10-17T07:29:11.603Z,99865.8
2022-10-17T07:30:11.922Z,99877.19
2022-10-17T07:31:18.190Z,99878.62
2022-10-17T07:32:14.805Z,99880.28
2022-10-17T07:33:14.810Z,99889.23
2022-10-17T07:34:14.657Z,99876.95
2022-10-17T07:35:14.905Z,99886.39
2022-10-17T07:36:15.666Z,99871.07
2022-10-17T07:37:14.886Z,99894.68
2022-10-17T07:38:14.898Z,99872.44
2022-10-17T07:39:15.223Z,99896.89
2022-10-17T07:40:14.674Z,99890.42
2022-10-17T07:41:19.170Z,99892.16
2022-10-17T07:42:17.900Z,99891.32
2022-10-17T07:43:17.822Z,99883.69
2022-10-17T07:44:18.403Z,99887.59
2022-10-17T07:45:18.413Z,99897.23
2022-10-17T07:46:17.942Z,99891.39
2022-10-17T07:47:18.031Z,99898.75
2022-10-17T07:48:18.126Z,99894.95
2022-10-17T07:49:18.102Z,99867.22
2022-10-17T07:50:19.815Z,99883.33
2022-10-17T07:51:17.993Z,99895.98
2022-10-17T07:52:18.330Z,99901.38
2022-10-17T07:53:18.057Z,99893.19
2022-10-17T07:54:17.994Z,99897.88
2022-10-17T07:55:18.057Z,99908.27
2022-10-17T07:56:18.096Z,99909.03
2022-10-17T07:57:18.323Z,99904.59
2022-10-17T07:58:18.277Z,99903.3
2022-10-17T07:59:18.477Z,99914.23
2022-10-17T08:00:18.592Z,99908.34
2022-10-17T08:01:18.677Z,99904.33
2022-10-17T08:02:23.291Z,99912.32
2022-10-17T08:03:19.490Z,99904.97
2022-10-17T08:04:19.726Z,99909.88
2022-10-17T08:05:19.826Z,99907.28
2022-10-17T08:06:19.594Z,99909.19
2022-10-17T08:07:24.199Z,99903.94
2022-10-17T08:08:23.280Z,99917.05
2022-10-17T08:09:23.538Z,99908.55
2022-10-17T08:10:23.673Z,99901.2
2022-10-17T08:11:23.521Z,99907.45
2022-10-17T08:12:23.339Z,99912.93
2022-10-17T08:13:23.335Z,99919.49
2022-10-17T08:14:23.401Z,99909.42
2022-10-17T08:15:27.924Z,99908.05
2022-10-17T08:16:27.135Z,99909.05
2022-10-17T08:17:27.274Z,99917.22
2022-10-17T08:18:27.213Z,99920.52
2022-10-17T08:19:27.185Z,99908.23
2022-10-17T08:20:27.228Z,99909.86
2022-10-17T08:21:27.291Z,99922.24
2022-10-17T08:22:27.516Z,99909.58
2022-10-17T08:23:27.731Z,99912.38
2022-10-17T08:24:27.295Z,99911.58
2022-10-17T08:25:28.580Z,99911.14
2022-10-17T08:26:27.963Z,99917.83
2022-10-17T08:27:27.373Z,99924.45
2022-10-17T08:28:27.641Z,99929.16
2022-10-17T08:29:27.386Z,99930.69
2022-10-17T08:30:27.369Z,99914.92
2022-10-17T08:31:27.428Z,99923.49
2022-10-17T08:32:28.393Z,99936.7
2022-10-17T08:33:27.416Z,99932.05
2022-10-17T08:34:27.466Z,99936.38
2022-10-17T08:35:27.464Z,99937.41
2022-10-17T08:36:27.664Z,99936.94
2022-10-17T08:37:27.847Z,99938.61
2022-10-17T08:38:34.688Z,99954.7
2022-10-17T08:39:31.835Z,99920.16
2022-10-17T08:40:31.887Z,99945.25
2022-10-17T08:46:45.258Z,99973.69
2022-10-17T08:47:45.250Z,99963.5
2022-10-17T08:48:46.539Z,99964.19
2022-10-17T08:49:51.510Z,99961.84
2022-10-17T08:51:51.766Z,99962.27
2022-10-17T08:52:50.956Z,99963.59
2022-10-17T08:53:51.885Z,99959.89
2022-10-17T08:54:48.828Z,99963.53
2022-10-17T08:55:52.061Z,99973.25
2022-10-17T08:57:49.431Z,99964.64
2022-10-17T08:58:49.608Z,99967.64
2022-10-17T08:59:51.101Z,99970.95
2022-10-17T09:07:20.919Z,99963.36
2022-10-17T09:10:21.052Z,99963.05
2022-10-17T09:14:32.057Z,99969.48
2022-10-17T09:18:36.229Z,99977.7
2022-10-17T09:19:36.786Z,99982.05
2022-10-17T09:20:37.315Z,99989.09
2022-10-17T09:22:41.279Z,99990.8
2022-10-17T09:25:46.760Z,99987.64
2022-10-17T09:26:44.693Z,99991.91
2022-10-17T09:27:45.814Z,99987.38
2022-10-17T09:28:43.731Z,99989.81
2022-10-17T09:29:46.036Z,99996.08
2022-10-17T09:30:46.597Z,99992.22
2022-10-17T09:32:44.673Z,100001.94
2022-10-17T09:33:54.691Z,100007.59
2022-10-17T09:34:46.594Z,99996.8
2022-10-17T09:35:46.795Z,99993.41
2022-10-17T09:36:46.436Z,99983.25
2022-10-17T09:37:51.386Z,99983.84
2022-10-17T09:38:50.320Z,99987.77
2022-10-17T09:39:47.813Z,99990.83
2022-10-17T09:40:56.947Z,99999.42
2022-10-17T09:41:53.407Z,99988.2
2022-10-17T09:42:53.403Z,99991.84
2022-10-17T09:43:52.959Z,99996.55
2022-10-17T09:50:03.177Z,99999.94
2022-10-17T09:51:14.670Z,99987.32
2022-10-17T09:52:04.537Z,99998.73
2022-10-17T09:54:11.271Z,100003.19
2022-10-17T09:56:13.343Z,99998.77
2022-10-17T09:57:12.424Z,100014.3
2022-10-17T09:58:11.623Z,100002.06
2022-10-17T09:59:13.919Z,100004.19
2022-10-17T10:02:22.608Z,100005.97
2022-10-17T10:03:20.457Z,100016.59
2022-10-17T10:04:18.813Z,100008.57
2022-10-17T10:05:19.448Z,100002.54
2022-10-17T10:06:20.374Z,100014.25
2022-10-17T10:07:19.495Z,100014.62
2022-10-17T10:08:19.629Z,100017.37
2022-10-17T10:09:25.702Z,100022.47
2022-10-17T10:10:27.841Z,100016.22
2022-10-17T10:11:26.054Z,100026.56
2022-10-17T10:12:25.996Z,100016.84
2022-10-17T10:13:25.986Z,100025.45
2022-10-17T10:16:33.353Z,100021.12
2022-10-17T10:18:36.377Z,100019.8
2022-10-17T10:19:37.410Z,100027.33
2022-10-17T10:20:37.201Z,100017.65
2022-10-17T10:22:40.765Z,100030.97
2022-10-17T10:23:41.609Z,100026.64
2022-10-17T10:24:40.560Z,100021.59
2022-10-17T10:25:52.184Z,100026.19
2022-10-17T10:26:45.494Z,100033.12
2022-10-17T10:27:45.321Z,100012.83
2022-10-17T10:28:50.945Z,100031.88
2022-10-17T10:29:51.398Z,100030.04
2022-10-17T10:30:51.158Z,100021.89
2022-10-17T10:31:48.598Z,100010.44
2022-10-17T10:32:48.855Z,100017.95
2022-10-17T10:33:50.258Z,100028.42
2022-10-17T10:37:56.575Z,100024.46
2022-10-17T10:38:58.334Z,100023.56
2022-10-17T10:39:59.522Z,100039.38
2022-10-17T10:40:57.426Z,100026.39
2022-10-17T10:41:55.914Z,100021.92
2022-10-17T10:43:01.286Z,100025.42
2022-10-17T10:43:56.351Z,100016.78
2022-10-17T10:45:02.357Z,100031.2
2022-10-17T10:45:59.170Z,100032.34
2022-10-17T10:48:06.160Z,100033.97
2022-10-17T10:49:02.670Z,100032.17
2022-10-17T10:51:15.052Z,100041.55
2022-10-17T10:52:15.773Z,100045.92
2022-10-17T10:54:19.898Z,100055.58
2022-10-17T10:55:23.075Z,100044.02
2022-10-17T10:56:31.480Z,100044.76
2022-10-17T10:57:28.088Z,100048.45
2022-10-17T10:58:33.574Z,100043.23
2022-10-17T11:00:31.926Z,100059.96
2022-10-17T11:06:39.886Z,100068.98
2022-10-17T11:08:45.776Z,100085.09
2022-10-17T11:11:00.680Z,100076
2022-10-17T11:11:50.344Z,100083.31
2022-10-17T11:12:50.970Z,100090.17
2022-10-17T11:15:58.930Z,100063.75
2022-10-17T11:18:00.505Z,100090.09
2022-10-17T11:20:10.666Z,100085.99
2022-10-17T11:21:13.258Z,100068.92
2022-10-17T11:23:15.667Z,100080.27
2022-10-17T11:24:16.305Z,100089.78
2022-10-17T11:25:17.636Z,100076.88
2022-10-17T11:26:23.296Z,100068.23
2022-10-17T11:27:15.082Z,100070.88
2022-10-17T11:28:16.843Z,100070.45
2022-10-17T11:29:15.822Z,100074.2
2022-10-17T11:30:18.042Z,100090.12
2022-10-17T11:31:15.663Z,100072.91
2022-10-17T11:32:17.051Z,100066.61
2022-10-17T11:33:22.042Z,100057.05
2022-10-17T11:34:22.852Z,100088.3
2022-10-17T11:35:21.090Z,100070.84
2022-10-17T11:36:21.241Z,100081.73
2022-10-17T11:37:22.889Z,100076.88
2022-10-17T11:38:26.993Z,100094.41
2022-10-17T11:39:29.636Z,100079.35
2022-10-17T11:40:34.537Z,100093.25
2022-10-17T11:41:42.856Z,100087.03
2022-10-17T11:42:39.076Z,100082.2
2022-10-17T11:43:40.530Z,100075.62
2022-10-17T11:44:38.133Z,100080.73
2022-10-17T11:45:41.139Z,100072.08
2022-10-17T11:46:40.145Z,100079.3
2022-10-17T11:47:43.574Z,100097.39
2022-10-17T11:48:50.779Z,100091.91
2022-10-17T11:49:48.567Z,100099.69
2022-10-17T11:54:03.119Z,100106.52
2022-10-17T11:54:56.444Z,100114.12
2022-10-17T11:55:58.067Z,100103.97
2022-10-17T12:00:07.048Z,100095.59
2022-10-17T12:01:16.145Z,100101.84
2022-10-17T12:02:22.127Z,100112.87
2022-10-17T12:09:27.684Z,100108.92
2022-10-17T12:12:32.588Z,100106.88
2022-10-17T12:15:35.500Z,100104.09
2022-10-17T12:16:39.092Z,100108.86
2022-10-17T12:17:37.702Z,100102.48
2022-10-17T12:18:36.939Z,100110.41
2022-10-17T12:19:37.040Z,100110.32
2022-10-17T12:20:37.684Z,100113.64
2022-10-17T12:22:46.540Z,100118.72
2022-10-17T12:23:51.533Z,100110.39
2022-10-17T12:25:52.158Z,100115.45
2022-10-17T12:26:52.255Z,100126.05
2022-10-17T12:27:50.855Z,100122.23
2022-10-17T12:28:50.472Z,100131.73
2022-10-17T12:29:50.591Z,100125.47
2022-10-17T12:30:58.055Z,100124.33
2022-10-17T12:31:54.261Z,100122.5
2022-10-17T12:34:00.011Z,100122.38
2022-10-17T12:34:59.186Z,100116.17
2022-10-17T12:37:02.751Z,100107.56
2022-10-17T12:41:07.293Z,100115.01
2022-10-17T12:46:12.874Z,100117.74
2022-10-17T12:48:12.515Z,100122.55
2022-10-17T12:53:24.729Z,100118.77
2022-10-17T12:54:23.194Z,100134.59
2022-10-17T12:55:24.648Z,100127.61
2022-10-17T12:58:30.852Z,100130.83
2022-10-17T12:59:29.636Z,100122.58
2022-10-17T13:01:34.163Z,100132.7
2022-10-17T13:02:33.245Z,100135.09
2022-10-17T13:03:33.349Z,100143.69
2022-10-17T13:04:36.053Z,100132.85
2022-10-17T13:05:36.957Z,100137.42
2022-10-17T13:06:35.047Z,100126.55
2022-10-17T13:07:34.173Z,100134.83
2022-10-17T13:08:34.556Z,100144.89
2022-10-17T13:09:36.069Z,100138.63
2022-10-17T13:10:40.647Z,100119.05
2022-10-17T13:11:35.757Z,100129.17
2022-10-17T13:12:41.229Z,100138.02
2022-10-17T13:13:41.731Z,100138.9
2022-10-17T13:14:39.002Z,100138.88
2022-10-17T13:15:37.942Z,100114.03
2022-10-17T13:16:39.199Z,100137.02
2022-10-17T13:17:40.646Z,100142.42
2022-10-17T13:18:39.376Z,100129.38
2022-10-17T13:19:43.851Z,100132.02
2022-10-17T13:20:40.074Z,100133.34
2022-10-17T13:21:49.086Z,100140.04
2022-10-17T13:22:44.631Z,100142.55
2022-10-17T13:23:40.914Z,100143.82
2022-10-17T13:24:40.858Z,100148.31
2022-10-17T13:25:40.889Z,100154.1
2022-10-17T13:26:44.854Z,100141.2
2022-10-17T13:27:41.192Z,100154.31
2022-10-17T13:28:41.817Z,100146.16
2022-10-17T13:29:44.318Z,100154.9
2022-10-17T13:30:45.989Z,100147.16
2022-10-17T13:31:43.491Z,100151.17
2022-10-17T13:32:42.226Z,100143.39
2022-10-17T13:33:42.220Z,100150.27
2022-10-17T13:34:42.475Z,100155.7
2022-10-17T13:35:59.335Z,100148.89
2022-10-17T13:36:48.876Z,100149.52
2022-10-17T13:37:53.018Z,100152.89
2022-10-17T13:38:52.757Z,100151.77
2022-10-17T13:39:55.784Z,100161.42
2022-10-17T13:41:01.676Z,100161.99
2022-10-17T13:41:58.147Z,100165.23
2022-10-17T13:42:58.539Z,100165.22
2022-10-17T13:43:57.781Z,100159.83
2022-10-17T13:44:58.457Z,100158.26
2022-10-17T13:46:13.646Z,100163.77
2022-10-17T13:47:01.315Z,100160.45
2022-10-17T13:51:11.177Z,100166.73
2022-10-17T13:52:17.070Z,100166.53
2022-10-17T13:55:17.449Z,100170.08
2022-10-17T13:57:23.344Z,100167.77
2022-10-17T13:58:19.998Z,100169.9
2022-10-17T13:59:23.738Z,100168.72
2022-10-17T14:00:21.391Z,100167.95
2022-10-17T14:01:23.621Z,100169.46
2022-10-17T14:02:22.294Z,100174.48
2022-10-17T14:03:21.077Z,100172.19
2022-10-17T14:04:20.778Z,100166.63
2022-10-17T14:05:21.298Z,100169.33
2022-10-17T14:06:27.781Z,100174.12
2022-10-17T14:07:34.121Z,100175.3
2022-10-17T14:08:25.152Z,100176.2
2022-10-17T14:09:25.724Z,100181.41
2022-10-17T14:10:31.674Z,100182.93
2022-10-17T14:11:35.771Z,100180.77
2022-10-17T14:12:33.234Z,100177.92
2022-10-17T14:13:32.504Z,100182.27
2022-10-17T14:14:51.620Z,100180.2
2022-10-17T14:15:35.713Z,100185.5
2022-10-17T14:16:34.995Z,100182.92
2022-10-17T14:17:33.694Z,100185.3
2022-10-17T14:18:36.344Z,100184.2